Latest Weather Observations for Thredbo Top Station

IDN60901

Issued at 12:12 pm EST Wednesday 21 April 2021 (issued every 10 minutes, with the page automatically refreshed every 10 minutes)

About weather observations | Map of Canberra area stations | Latest observations for Canberra area | Other Formats
Station Details ID: 071032 Name: THREDBO AWS Lat: -36.49 Lon: 148.29 Height: 1957.0 m
Data from the previous 72 hours. | See also: Recent months at Thredbo Top Station
Date/Time
EST
Temp
°C
App
Temp
°C
Dew
Point
°C
Rel
Hum
%
Delta-T
°C
Wind Press
QNH
hPa
Press
MSL
hPa
Rain since
9am
mm
Dir  Spd
km/h
Gust
km/h
Spd
kts
Gust
kts
21/12:00pm -0.4 -3.7 -1.0 96 0.2 SE 6 11 3 6 1015.3 1011.5 0.0
21/11:30am -0.5 -4.4 -1.5 93 0.4 ESE 9 15 5 8 1015.1 1011.4 0.0
21/11:00am 0.2 - - - - E 9 13 5 7 1015.0 1011.3 0.0
21/10:30am -0.8 - - - - ESE 7 17 4 9 1015.0 1011.3 0.0
21/10:00am -2.1 - - - - SE 11 19 6 10 1015.1 1011.4 0.0
21/09:30am -1.6 - - - - WSW 2 7 1 4 1014.9 1011.1 0.0
21/09:00am -2.4 - - - - SSE 9 32 5 17 1014.5 1010.8 9.4
21/08:30am -2.9 - - - - SSE 9 15 5 8 - - 9.4
21/08:00am -3.1 - - - - SSE 22 33 12 18 - - 9.4
21/07:30am -3.6 - - - - S 24 33 13 18 - - 9.4
21/07:00am -3.8 - - - - S 26 37 14 20 - - 9.4
21/06:34am -3.8 - - - - SW 15 41 8 22 - - 9.4
21/06:30am -3.8 - - - - WSW 9 20 5 11 - - 9.4
21/06:00am -4.8 - - - - WSW 9 17 5 9 - - 9.4
21/05:30am -5.1 - - - - WSW 13 30 7 16 - - 9.4
21/05:00am -5.2 - - - - WSW 15 30 8 16 - - 9.4
21/04:30am -4.8 - - - - WSW 19 30 10 16 - - 9.4
21/04:00am -4.9 - - - - WSW 20 30 11 16 - - 9.4
21/03:30am -4.4 - - - - WSW 19 26 10 14 - - 9.4
21/03:00am -4.2 - - - - WSW 13 22 7 12 - - 9.4
21/02:30am -4.2 - - - - WSW 19 28 10 15 - - 9.4
21/02:00am -4.1 - - - - WSW 17 24 9 13 - - 9.4
21/01:30am -2.9 - - - - WSW 11 19 6 10 - - 9.4
21/01:00am -2.7 - - - - WSW 15 20 8 11 - - 9.2
21/12:30am -2.5 - - - - WSW 13 24 7 13 - - 9.2
21/12:00am -2.0 - - - - WSW 11 19 6 10 - - 9.2
 
Date/Time
EST
Temp
°C
App
Temp
°C
Dew
Point
°C
Rel
Hum
%
Delta-T
°C
Wind Press
QNH
hPa
Press
MSL
hPa
Rain since
9am
mm
Dir  Spd
km/h
Gust
km/h
Spd
kts
Gust
kts
20/11:30pm -2.0 - - - - WSW 11 20 6 11 - - 9.0
20/11:00pm -1.6 - - - - WSW 11 20 6 11 - - 9.0
20/10:30pm -1.2 - - - - WSW 19 32 10 17 - - 9.0
20/10:00pm -0.9 - - - - WSW 15 30 8 16 - - 9.0
20/09:30pm -1.0 - - - - SW 15 24 8 13 - - 7.8
20/09:00pm -0.6 - - - - WSW 22 35 12 19 - - 6.6
20/08:35pm 0.3 - - - - W 28 48 15 26 - - 5.6
20/08:30pm 0.4 - - - - WSW 24 39 13 21 - - 5.4
20/08:02pm 0.5 - - - - W 32 56 17 30 - - 3.6
20/08:00pm 0.6 - - - - W 32 52 17 28 - - 3.4
20/07:54pm 0.7 - - - - WNW 33 52 18 28 - - 2.8
20/07:46pm 0.9 - - - - NW 39 57 21 31 - - 2.4
20/07:30pm 1.8 - - - - NNW 50 63 27 34 - - 2.0
20/07:00pm 1.4 - - - - NNW 43 57 23 31 - - 2.0
20/06:31pm 1.6 - - - - NNW 52 70 28 38 - - 2.0
20/06:30pm 1.5 - - - - NNW 54 70 29 38 - - 2.0
20/06:00pm 1.0 - - - - NW 33 54 18 29 - - 1.8
20/05:56pm 1.3 - - - - NW 35 54 19 29 - - 1.4
20/05:30pm 1.8 - - - - NW 46 56 25 30 - - 0.6
20/05:00pm 2.2 - - - - NNW 48 61 26 33 - - 0.4
20/04:34pm 2.4 - - - - NW 43 61 23 33 - - 0.4
20/04:30pm 2.4 - - - - NW 44 61 24 33 - - 0.4
20/04:05pm 2.4 - - - - NW 50 70 27 38 - - 0.4
20/04:00pm 2.4 - - - - NW 52 67 28 36 - - 0.4
20/03:30pm 1.9 - - - - NW 41 63 22 34 - - 0.4
20/03:00pm 2.1 - - - - NW 46 67 25 36 - - 0.0
20/02:30pm 2.6 - - - - NW 56 76 30 41 - - 0.0
20/02:00pm 2.2 - - - - NW 57 80 31 43 - - 0.0
20/01:30pm 2.2 - - - - NW 46 65 25 35 - - 0.0
20/01:01pm 2.0 - - - - NW 50 69 27 37 - - 0.0
20/01:00pm 2.0 - - - - NW 52 69 28 37 - - 0.0
20/12:30pm 2.1 - - - - NW 48 76 26 41 - - 0.0
20/12:00pm 2.1 - - - - NW 50 74 27 40 - - 0.0
20/11:30am 2.0 - - - - NW 57 82 31 44 - - 0.0
20/11:00am 1.2 - - - - WNW 57 82 31 44 - - 0.0
20/10:30am 1.2 - - - - NW 57 82 31 44 - - 0.0
20/10:00am 1.4 - - - - NW 57 85 31 46 - - 0.0
20/09:30am 1.5 - - - - NW 61 85 33 46 - - 0.0
20/09:00am 1.9 - - - - NW 63 83 34 45 - - 0.0
20/08:30am 1.8 - - - - WNW 61 87 33 47 - - 0.0
20/08:22am 1.4 - - - - WNW 65 85 35 46 - - 0.0
20/08:17am 1.3 - - - - WNW 59 85 32 46 - - 0.0
20/08:00am 1.3 - - - - NW 54 80 29 43 - - 0.0
20/07:30am 1.3 - - - - NW 46 69 25 37 - - 0.0
20/07:00am 1.3 - - - - NW 48 72 26 39 - - 0.0
20/06:30am 1.2 - - - - NW 41 59 22 32 1014.3 1010.5 0.0
20/06:00am 1.0 - - - - NW 37 59 20 32 1014.7 1010.9 0.0
20/05:37am 0.9 - - - - NW 43 61 23 33 1014.5 1010.8 0.0
20/05:30am 0.9 - - - - WNW 46 59 25 32 1014.4 1010.6 0.0
20/05:00am 0.7 - - - - NW 48 67 26 36 1014.3 1010.5 0.0
20/04:38am 0.6 - - - - NW 50 69 27 37 - - 0.0
20/04:30am 0.7 - - - - NW 50 67 27 36 1014.3 1010.5 0.0
20/04:02am 0.8 - - - - NW 57 76 31 41 - - 0.0
20/04:00am 0.8 - - - - NW 59 76 32 41 - - 0.0
20/03:47am 0.9 - - - - NW 57 76 31 41 - - 0.0
20/03:30am 0.8 - - - - NW 59 76 32 41 - - 0.0
20/03:25am 0.9 - - - - NW 57 76 31 41 - - 0.0
20/03:00am 1.0 - - - - WNW 65 76 35 41 - - 0.0
20/02:30am 1.2 - - - - NW 65 80 35 43 - - 0.0
20/02:11am 1.3 - - - - NW 65 87 35 47 - - 0.0
20/02:00am 1.3 - - - - WNW 65 76 35 41 - - 0.0
20/01:30am 1.3 - - - - WNW 67 82 36 44 1014.3 1010.5 0.0
20/01:00am 1.2 - - - - WNW 70 82 38 44 1014.5 1010.8 0.0
20/12:30am 0.9 - - - - WNW 69 82 37 44 1014.5 1010.8 0.0
20/12:00am 1.0 - - - - NW 65 78 35 42 1014.8 1011.0 0.0
 
Date/Time
EST
Temp
°C
App
Temp
°C
Dew
Point
°C
Rel
Hum
%
Delta-T
°C
Wind Press
QNH
hPa
Press
MSL
hPa
Rain since
9am
mm
Dir  Spd
km/h
Gust
km/h
Spd
kts
Gust
kts
19/11:30pm 0.8 - - - - WNW 63 78 34 42 1014.8 1011.0 0.0
19/11:20pm 0.9 - - - - NW 57 76 31 41 1015.1 1011.4 0.0
19/11:00pm 0.9 - - - - NW 57 72 31 39 1015.4 1011.7 0.0
19/10:30pm 0.7 - - - - NW 52 67 28 36 1015.7 1012.0 0.0
19/10:00pm 0.7 - - - - NW 48 61 26 33 1016.1 1012.4 0.0
19/09:47pm 0.7 - - - - NW 44 63 24 34 1016.2 1012.5 0.0
19/09:30pm 0.8 - - - - NW 46 61 25 33 1016.5 1012.8 0.0
19/09:00pm 1.1 - - - - NW 39 54 21 29 1016.8 1013.2 0.0
19/08:30pm 1.3 - - - - NW 43 56 23 30 1016.8 1013.2 0.0
19/08:00pm 1.5 - - - - NW 43 56 23 30 1016.7 1013.0 0.0
19/07:30pm 2.8 - - - - NW 39 54 21 29 1017.0 1013.3 0.0
19/07:00pm 2.0 - - - - NW 39 48 21 26 1017.2 1013.5 0.0
19/06:30pm 3.3 - - - - NW 37 56 20 30 1017.6 1013.9 0.0
19/06:28pm 3.5 - - - - NW 37 56 20 30 1017.6 1013.9 0.0
19/06:00pm 4.7 - - - - NW 37 50 20 27 1017.1 1013.4 0.0
19/05:30pm 4.7 - - - - NW 37 46 20 25 1017.1 1013.4 0.0
19/05:00pm 5.1 - - - - NW 35 46 19 25 1017.3 1013.7 0.0
19/04:30pm 6.1 - - - - NW 35 50 19 27 1017.3 1013.7 0.0
19/04:00pm 5.5 - - - - NW 33 46 18 25 1017.2 1013.5 0.0
19/03:30pm 5.8 - - - - NW 28 43 15 23 1017.6 1013.9 0.0
19/03:00pm 6.6 - - - - NW 24 35 13 19 1017.9 1014.3 0.0
19/02:30pm 7.2 - - - - NW 35 44 19 24 1017.4 1013.8 0.0
19/02:00pm 8.4 - - - - NW 33 43 18 23 1017.6 1013.9 0.0
19/01:30pm 9.2 - - - - NNW 35 44 19 24 1017.8 1014.2 0.0
19/01:00pm 10.0 - - - - NNW 32 41 17 22 1018.4 1014.8 0.0
19/12:30pm 9.8 - - - - NNW 28 37 15 20 1018.8 1015.2 0.0
19/12:00pm 10.2 - - - - NW 26 37 14 20 1019.1 1015.6 0.0
19/11:30am 10.4 - - - - NNW 24 35 13 19 1019.6 1016.1 0.0
19/11:00am 10.0 - - - - NNW 26 39 14 21 1019.7 1016.2 0.0
19/10:30am 9.9 - - - - NW 26 33 14 18 1020.0 1016.5 0.0
19/10:00am 9.7 - - - - WNW 28 35 15 19 1020.1 1016.6 0.0
19/09:30am 9.1 - - - - WNW 28 35 15 19 1020.4 1016.8 0.0
19/09:00am 8.4 - - - - WNW 30 37 16 20 1020.4 1016.8 0.0
19/08:30am 8.2 - - - - WNW 28 33 15 18 1020.5 1017.0 0.0
19/08:00am 7.6 - - - - WNW 26 33 14 18 1020.4 1016.8 0.0
19/07:30am 6.6 - - - - WNW 28 33 15 18 1020.1 1016.6 0.0
19/07:00am 6.1 - - - - WNW 32 35 17 19 1020.1 1016.6 0.0
19/06:30am 4.5 - - - - WNW 30 35 16 19 1019.9 1016.3 0.0
19/06:00am 5.2 - - - - WNW 32 37 17 20 1019.9 1016.3 0.0
19/05:30am 5.3 - - - - WNW 32 35 17 19 1019.9 1016.3 0.0
19/05:00am 5.1 - - - - WNW 33 37 18 20 1019.9 1016.3 0.0
19/04:30am 4.8 - - - - WNW 32 37 17 20 1019.7 1016.2 0.0
19/04:00am 4.2 - - - - WNW 28 33 15 18 1019.9 1016.3 0.0
19/03:30am 4.1 - - - - WNW 26 33 14 18 1020.0 1016.5 0.0
19/03:00am 4.1 - - - - WNW 30 39 16 21 1020.1 1016.6 0.0
19/02:30am 3.2 - - - - WNW 20 26 11 14 1020.6 1017.1 0.0
19/02:00am 3.5 - - - - WNW 24 30 13 16 1020.8 1017.3 0.0
19/01:30am 3.8 - - - - WNW 24 26 13 14 1021.2 1017.7 0.0
19/01:00am 3.0 - - - - WNW 20 24 11 13 1021.3 1017.8 0.0
19/12:30am 2.7 - - - - WNW 20 24 11 13 1021.4 1018.0 0.0
19/12:00am 2.7 - - - - WNW 20 22 11 12 1021.6 1018.1 0.0
 
Date/Time
EST
Temp
°C
App
Temp
°C
Dew
Point
°C
Rel
Hum
%
Delta-T
°C
Wind Press
QNH
hPa
Press
MSL
hPa
Rain since
9am
mm
Dir  Spd
km/h
Gust
km/h
Spd
kts
Gust
kts
18/11:30pm 2.9 - - - - WNW 15 19 8 10 1021.8 1018.3 0.0
18/11:00pm 3.1 - - - - WNW 19 20 10 11 1021.9 1018.5 0.0
18/10:30pm 3.0 - - - - WNW 20 24 11 13 1022.0 1018.6 0.0
18/10:00pm 3.2 - - - - WNW 20 24 11 13 1022.2 1018.7 0.0
18/09:30pm 3.0 - - - - WNW 20 24 11 13 1022.4 1019.0 0.0
18/09:00pm 2.6 - - - - WNW 17 19 9 10 1022.4 1019.0 0.0
18/08:30pm 2.1 - - - - NW 7 11 4 6 1022.4 1019.0 0.0
18/08:00pm 1.7 - - - - NW 7 11 4 6 1022.5 1019.1 0.0
18/07:30pm 1.3 - - - - NW 9 11 5 6 1022.7 1019.2 0.0
18/07:00pm 1.8 - - - - NW 11 13 6 7 1022.5 1019.1 0.0
18/06:30pm 1.3 - - - - NW 9 11 5 6 1022.4 1019.0 0.0
18/06:00pm 2.3 - - - - WNW 7 9 4 5 1022.2 1018.7 0.0
18/05:30pm 4.6 - - - - W 9 11 5 6 1022.0 1018.6 0.0
18/05:00pm 5.8 - - - - W 9 15 5 8 1021.9 1018.5 0.0
18/04:30pm 6.9 - - - - WSW 11 17 6 9 1021.9 1018.5 0.0
18/04:00pm 7.9 - - - - SW 9 13 5 7 1021.9 1018.5 0.0
18/03:30pm 8.4 - - - - SW 13 19 7 10 1022.0 1018.6 0.0
18/03:00pm 9.0 - - - - SW 9 17 5 9 1022.0 1018.6 0.0
18/02:30pm 9.2 - - - - SSW 6 13 3 7 1021.9 1018.5 0.0
18/02:00pm 9.7 - - - - SSW 11 15 6 8 1022.0 1018.6 0.0
18/01:30pm 9.0 - - - - SSW 13 20 7 11 1022.2 1018.7 0.0
18/01:00pm 9.1 - - - - SW 9 15 5 8 1022.5 1019.1 0.0
18/12:30pm 9.1 - - - - SSW 11 20 6 11 1022.8 1019.4 0.0

Latest Capital City Observations: Canberra | Sydney | Melbourne | Brisbane | Adelaide | Perth | Hobart | Darwin

Other formats

Comma delimited format used in spreadsheet applications
http://www.bom.gov.au/fwo/IDN60903/IDN60903.95909.axf

JavaScript Object Notation format (JSON) in row-major order
http://www.bom.gov.au/fwo/IDN60903/IDN60903.95909.json

Data quality

Most of these data are generated automatically and are frequently updated. Quality checks on data are not normally performed. It is possible for incorrect values to appear. Refer to information at About Latest Weather Observations and please check the disclaimer before using these data.